sensor_id;sensor_type;location;lat;lon;timestamp;P1;durP1;ratioP1;P2;durP2;ratioP2
13951;SDS011;39535;52.192;9.886;2023-03-03T00:00:22;15.70;;;11.37;;
13951;SDS011;39535;52.192;9.886;2023-03-03T00:02:49;16.77;;;11.53;;
13951;SDS011;39535;52.192;9.886;2023-03-03T00:05:15;13.10;;;10.27;;
13951;SDS011;39535;52.192;9.886;2023-03-03T00:07:42;13.80;;;10.27;;
13951;SDS011;39535;52.192;9.886;2023-03-03T00:10:09;12.87;;;11.33;;
13951;SDS011;39535;52.192;9.886;2023-03-03T00:12:36;12.30;;;9.53;;
13951;SDS011;39535;52.192;9.886;2023-03-03T00:15:16;13.00;;;10.20;;
13951;SDS011;39535;52.192;9.886;2023-03-03T00:17:44;12.30;;;9.93;;
13951;SDS011;39535;52.192;9.886;2023-03-03T00:20:28;12.53;;;10.07;;
13951;SDS011;39535;52.192;9.886;2023-03-03T00:23:03;13.80;;;10.03;;
13951;SDS011;39535;52.192;9.886;2023-03-03T00:25:41;12.70;;;10.27;;
13951;SDS011;39535;52.192;9.886;2023-03-03T00:28:15;12.63;;;10.53;;
13951;SDS011;39535;52.192;9.886;2023-03-03T00:30:48;12.97;;;10.17;;
13951;SDS011;39535;52.192;9.886;2023-03-03T00:33:22;10.70;;;8.97;;
13951;SDS011;39535;52.192;9.886;2023-03-03T00:35:53;11.03;;;9.80;;
13951;SDS011;39535;52.192;9.886;2023-03-03T00:38:20;14.67;;;10.63;;
13951;SDS011;39535;52.192;9.886;2023-03-03T00:40:46;17.83;;;10.37;;
13951;SDS011;39535;52.192;9.886;2023-03-03T00:43:15;12.90;;;10.70;;
13951;SDS011;39535;52.192;9.886;2023-03-03T00:45:44;14.00;;;10.10;;
13951;SDS011;39535;52.192;9.886;2023-03-03T00:48:20;13.60;;;10.33;;
13951;SDS011;39535;52.192;9.886;2023-03-03T00:50:48;11.20;;;10.03;;
13951;SDS011;39535;52.192;9.886;2023-03-03T00:53:16;11.43;;;9.90;;
13951;SDS011;39535;52.192;9.886;2023-03-03T00:55:44;14.10;;;10.40;;
13951;SDS011;39535;52.192;9.886;2023-03-03T00:58:12;16.40;;;10.47;;
13951;SDS011;39535;52.192;9.886;2023-03-03T01:00:38;12.47;;;10.20;;
13951;SDS011;39535;52.192;9.886;2023-03-03T01:03:06;12.43;;;10.17;;
13951;SDS011;39535;52.192;9.886;2023-03-03T01:05:35;13.63;;;10.23;;
13951;SDS011;39535;52.192;9.886;2023-03-03T01:08:02;14.37;;;10.37;;
13951;SDS011;39535;52.192;9.886;2023-03-03T01:10:29;13.10;;;10.80;;
13951;SDS011;39535;52.192;9.886;2023-03-03T01:12:59;12.23;;;10.93;;
13951;SDS011;39535;52.192;9.886;2023-03-03T01:15:25;12.40;;;11.07;;
13951;SDS011;39535;52.192;9.886;2023-03-03T01:17:53;13.10;;;10.70;;
13951;SDS011;39535;52.192;9.886;2023-03-03T01:20:20;18.00;;;11.47;;
13951;SDS011;39535;52.192;9.886;2023-03-03T01:22:49;13.87;;;11.73;;
13951;SDS011;39535;52.192;9.886;2023-03-03T01:25:15;11.27;;;9.73;;
13951;SDS011;39535;52.192;9.886;2023-03-03T01:27:42;16.57;;;10.70;;
13951;SDS011;39535;52.192;9.886;2023-03-03T01:30:08;13.30;;;9.67;;
13951;SDS011;39535;52.192;9.886;2023-03-03T01:32:35;10.90;;;9.60;;
13951;SDS011;39535;52.192;9.886;2023-03-03T01:35:02;11.73;;;10.33;;
13951;SDS011;39535;52.192;9.886;2023-03-03T01:37:29;12.03;;;10.73;;
13951;SDS011;39535;52.192;9.886;2023-03-03T01:39:56;13.13;;;10.13;;
13951;SDS011;39535;52.192;9.886;2023-03-03T01:42:23;12.20;;;9.57;;
13951;SDS011;39535;52.192;9.886;2023-03-03T01:45:07;13.63;;;9.67;;
13951;SDS011;39535;52.192;9.886;2023-03-03T01:47:38;12.40;;;9.60;;
13951;SDS011;39535;52.192;9.886;2023-03-03T01:50:07;13.87;;;9.53;;
13951;SDS011;39535;52.192;9.886;2023-03-03T01:52:39;15.43;;;10.83;;
13951;SDS011;39535;52.192;9.886;2023-03-03T01:55:11;14.03;;;11.10;;
13951;SDS011;39535;52.192;9.886;2023-03-03T01:57:41;15.20;;;11.27;;
13951;SDS011;39535;52.192;9.886;2023-03-03T02:00:11;15.47;;;11.50;;
13951;SDS011;39535;52.192;9.886;2023-03-03T02:02:40;13.80;;;10.70;;
13951;SDS011;39535;52.192;9.886;2023-03-03T02:05:08;12.23;;;9.67;;
13951;SDS011;39535;52.192;9.886;2023-03-03T02:07:35;12.00;;;9.33;;
13951;SDS011;39535;52.192;9.886;2023-03-03T02:10:04;14.07;;;9.90;;
13951;SDS011;39535;52.192;9.886;2023-03-03T02:12:35;9.97;;;8.87;;
13951;SDS011;39535;52.192;9.886;2023-03-03T02:15:10;12.10;;;9.60;;
13951;SDS011;39535;52.192;9.886;2023-03-03T02:17:41;12.83;;;10.03;;
13951;SDS011;39535;52.192;9.886;2023-03-03T02:20:09;12.37;;;10.37;;
13951;SDS011;39535;52.192;9.886;2023-03-03T02:22:43;15.03;;;10.10;;
13951;SDS011;39535;52.192;9.886;2023-03-03T02:25:17;19.30;;;11.50;;
13951;SDS011;39535;52.192;9.886;2023-03-03T02:27:55;28.50;;;12.70;;
13951;SDS011;39535;52.192;9.886;2023-03-03T02:30:22;31.30;;;13.80;;
13951;SDS011;39535;52.192;9.886;2023-03-03T02:32:49;34.00;;;16.20;;
13951;SDS011;39535;52.192;9.886;2023-03-03T02:35:26;41.63;;;16.80;;
13951;SDS011;39535;52.192;9.886;2023-03-03T02:37:55;43.33;;;16.37;;
13951;SDS011;39535;52.192;9.886;2023-03-03T02:40:27;42.70;;;16.07;;
13951;SDS011;39535;52.192;9.886;2023-03-03T02:42:59;51.13;;;17.97;;
13951;SDS011;39535;52.192;9.886;2023-03-03T02:45:28;36.90;;;15.97;;
13951;SDS011;39535;52.192;9.886;2023-03-03T02:47:55;43.00;;;16.87;;
13951;SDS011;39535;52.192;9.886;2023-03-03T02:50:21;43.50;;;15.73;;
13951;SDS011;39535;52.192;9.886;2023-03-03T02:52:48;38.87;;;16.93;;
13951;SDS011;39535;52.192;9.886;2023-03-03T02:55:14;41.87;;;16.03;;
13951;SDS011;39535;52.192;9.886;2023-03-03T02:57:41;54.53;;;16.90;;
13951;SDS011;39535;52.192;9.886;2023-03-03T03:00:09;39.13;;;16.63;;
13951;SDS011;39535;52.192;9.886;2023-03-03T03:02:36;42.33;;;16.77;;
13951;SDS011;39535;52.192;9.886;2023-03-03T03:05:03;42.63;;;15.37;;
13951;SDS011;39535;52.192;9.886;2023-03-03T03:07:30;29.93;;;13.37;;
13951;SDS011;39535;52.192;9.886;2023-03-03T03:09:56;37.80;;;15.77;;
13951;SDS011;39535;52.192;9.886;2023-03-03T03:12:22;34.30;;;16.27;;
13951;SDS011;39535;52.192;9.886;2023-03-03T03:14:49;46.23;;;16.13;;
13951;SDS011;39535;52.192;9.886;2023-03-03T03:17:17;44.43;;;15.90;;
13951;SDS011;39535;52.192;9.886;2023-03-03T03:19:43;31.87;;;14.57;;
13951;SDS011;39535;52.192;9.886;2023-03-03T03:22:09;42.47;;;15.50;;
13951;SDS011;39535;52.192;9.886;2023-03-03T03:24:36;36.13;;;14.00;;
13951;SDS011;39535;52.192;9.886;2023-03-03T03:27:02;29.03;;;12.13;;
13951;SDS011;39535;52.192;9.886;2023-03-03T03:29:29;20.07;;;12.43;;
13951;SDS011;39535;52.192;9.886;2023-03-03T03:31:55;24.00;;;12.10;;
13951;SDS011;39535;52.192;9.886;2023-03-03T03:34:23;28.30;;;11.93;;
13951;SDS011;39535;52.192;9.886;2023-03-03T03:36:49;23.83;;;12.20;;
13951;SDS011;39535;52.192;9.886;2023-03-03T03:39:16;21.43;;;12.03;;
13951;SDS011;39535;52.192;9.886;2023-03-03T03:41:42;15.80;;;10.97;;
13951;SDS011;39535;52.192;9.886;2023-03-03T03:44:10;20.27;;;11.77;;
13951;SDS011;39535;52.192;9.886;2023-03-03T03:46:36;14.87;;;10.67;;
13951;SDS011;39535;52.192;9.886;2023-03-03T03:49:02;18.73;;;11.70;;
13951;SDS011;39535;52.192;9.886;2023-03-03T03:51:30;20.10;;;11.47;;
13951;SDS011;39535;52.192;9.886;2023-03-03T03:53:59;25.03;;;11.63;;
13951;SDS011;39535;52.192;9.886;2023-03-03T03:56:25;24.77;;;12.53;;
13951;SDS011;39535;52.192;9.886;2023-03-03T03:58:52;23.87;;;12.17;;
13951;SDS011;39535;52.192;9.886;2023-03-03T04:01:18;30.07;;;13.63;;
13951;SDS011;39535;52.192;9.886;2023-03-03T04:03:45;32.97;;;14.63;;
13951;SDS011;39535;52.192;9.886;2023-03-03T04:06:12;33.33;;;14.93;;
13951;SDS011;39535;52.192;9.886;2023-03-03T04:08:40;35.87;;;15.10;;
13951;SDS011;39535;52.192;9.886;2023-03-03T04:11:07;35.33;;;14.50;;
13951;SDS011;39535;52.192;9.886;2023-03-03T04:13:33;36.80;;;15.73;;
13951;SDS011;39535;52.192;9.886;2023-03-03T04:16:00;46.90;;;16.83;;
13951;SDS011;39535;52.192;9.886;2023-03-03T04:18:26;39.07;;;17.00;;
13951;SDS011;39535;52.192;9.886;2023-03-03T04:20:52;32.47;;;14.63;;
13951;SDS011;39535;52.192;9.886;2023-03-03T04:23:20;20.10;;;12.60;;
13951;SDS011;39535;52.192;9.886;2023-03-03T04:25:48;17.43;;;11.07;;
13951;SDS011;39535;52.192;9.886;2023-03-03T04:28:15;14.70;;;9.87;;
13951;SDS011;39535;52.192;9.886;2023-03-03T04:30:41;15.07;;;9.60;;
13951;SDS011;39535;52.192;9.886;2023-03-03T04:33:08;13.73;;;9.70;;
13951;SDS011;39535;52.192;9.886;2023-03-03T04:35:34;13.07;;;10.20;;
13951;SDS011;39535;52.192;9.886;2023-03-03T04:38:01;12.30;;;9.53;;
13951;SDS011;39535;52.192;9.886;2023-03-03T04:40:27;11.13;;;8.73;;
13951;SDS011;39535;52.192;9.886;2023-03-03T04:42:55;12.37;;;9.40;;
13951;SDS011;39535;52.192;9.886;2023-03-03T04:45:21;11.67;;;9.00;;
13951;SDS011;39535;52.192;9.886;2023-03-03T04:47:47;12.63;;;9.30;;
13951;SDS011;39535;52.192;9.886;2023-03-03T04:50:14;12.63;;;9.33;;
13951;SDS011;39535;52.192;9.886;2023-03-03T04:52:40;12.03;;;8.97;;
13951;SDS011;39535;52.192;9.886;2023-03-03T04:55:07;12.20;;;9.43;;
13951;SDS011;39535;52.192;9.886;2023-03-03T04:57:34;13.20;;;9.50;;
13951;SDS011;39535;52.192;9.886;2023-03-03T05:00:02;14.50;;;9.67;;
13951;SDS011;39535;52.192;9.886;2023-03-03T05:02:30;15.37;;;9.90;;
13951;SDS011;39535;52.192;9.886;2023-03-03T05:04:57;16.43;;;10.90;;
13951;SDS011;39535;52.192;9.886;2023-03-03T05:07:23;14.07;;;9.23;;
13951;SDS011;39535;52.192;9.886;2023-03-03T05:09:49;13.63;;;10.40;;
13951;SDS011;39535;52.192;9.886;2023-03-03T05:12:16;12.30;;;9.73;;
13951;SDS011;39535;52.192;9.886;2023-03-03T05:14:43;13.33;;;10.20;;
13951;SDS011;39535;52.192;9.886;2023-03-03T05:17:10;12.67;;;9.70;;
13951;SDS011;39535;52.192;9.886;2023-03-03T05:19:37;12.43;;;9.33;;
13951;SDS011;39535;52.192;9.886;2023-03-03T05:22:03;15.50;;;10.10;;
13951;SDS011;39535;52.192;9.886;2023-03-03T05:24:30;14.53;;;10.23;;
13951;SDS011;39535;52.192;9.886;2023-03-03T05:26:56;14.03;;;9.73;;
13951;SDS011;39535;52.192;9.886;2023-03-03T05:29:23;14.93;;;10.93;;
13951;SDS011;39535;52.192;9.886;2023-03-03T05:31:50;16.13;;;10.20;;
13951;SDS011;39535;52.192;9.886;2023-03-03T05:34:17;18.80;;;11.53;;
13951;SDS011;39535;52.192;9.886;2023-03-03T05:36:44;19.63;;;11.70;;
13951;SDS011;39535;52.192;9.886;2023-03-03T05:39:10;15.87;;;10.73;;
13951;SDS011;39535;52.192;9.886;2023-03-03T05:41:37;18.67;;;11.80;;
13951;SDS011;39535;52.192;9.886;2023-03-03T05:44:03;16.70;;;10.47;;
13951;SDS011;39535;52.192;9.886;2023-03-03T05:46:29;21.03;;;11.83;;
13951;SDS011;39535;52.192;9.886;2023-03-03T05:48:56;18.80;;;11.80;;
13951;SDS011;39535;52.192;9.886;2023-03-03T05:51:23;19.30;;;12.43;;
13951;SDS011;39535;52.192;9.886;2023-03-03T05:53:50;25.37;;;12.37;;
13951;SDS011;39535;52.192;9.886;2023-03-03T05:56:16;19.87;;;12.00;;
13951;SDS011;39535;52.192;9.886;2023-03-03T05:58:43;20.03;;;12.33;;
13951;SDS011;39535;52.192;9.886;2023-03-03T06:01:09;17.93;;;11.50;;
13951;SDS011;39535;52.192;9.886;2023-03-03T06:03:35;25.97;;;12.87;;
13951;SDS011;39535;52.192;9.886;2023-03-03T06:06:02;27.80;;;12.93;;
13951;SDS011;39535;52.192;9.886;2023-03-03T06:08:30;21.70;;;13.03;;
13951;SDS011;39535;52.192;9.886;2023-03-03T06:10:56;26.07;;;12.80;;
13951;SDS011;39535;52.192;9.886;2023-03-03T06:13:23;25.47;;;13.07;;
13951;SDS011;39535;52.192;9.886;2023-03-03T06:15:49;22.97;;;12.53;;
13951;SDS011;39535;52.192;9.886;2023-03-03T06:18:16;25.33;;;12.10;;
13951;SDS011;39535;52.192;9.886;2023-03-03T06:20:42;19.73;;;11.53;;
13951;SDS011;39535;52.192;9.886;2023-03-03T06:23:08;17.70;;;11.53;;
13951;SDS011;39535;52.192;9.886;2023-03-03T06:25:37;18.00;;;11.20;;
13951;SDS011;39535;52.192;9.886;2023-03-03T06:28:04;22.87;;;12.33;;
13951;SDS011;39535;52.192;9.886;2023-03-03T06:30:30;20.13;;;11.90;;
13951;SDS011;39535;52.192;9.886;2023-03-03T06:32:56;20.23;;;11.70;;
13951;SDS011;39535;52.192;9.886;2023-03-03T06:35:23;26.17;;;12.93;;
13951;SDS011;39535;52.192;9.886;2023-03-03T06:37:49;20.87;;;11.27;;
13951;SDS011;39535;52.192;9.886;2023-03-03T06:40:16;22.47;;;13.00;;
13951;SDS011;39535;52.192;9.886;2023-03-03T06:42:43;26.67;;;12.53;;
13951;SDS011;39535;52.192;9.886;2023-03-03T06:45:10;22.03;;;12.50;;
13951;SDS011;39535;52.192;9.886;2023-03-03T06:47:37;23.70;;;13.33;;
13951;SDS011;39535;52.192;9.886;2023-03-03T06:50:03;23.90;;;13.13;;
13951;SDS011;39535;52.192;9.886;2023-03-03T06:52:30;25.37;;;13.17;;
13951;SDS011;39535;52.192;9.886;2023-03-03T06:54:57;32.77;;;13.27;;
13951;SDS011;39535;52.192;9.886;2023-03-03T06:57:26;22.40;;;12.00;;
13951;SDS011;39535;52.192;9.886;2023-03-03T06:59:56;32.67;;;13.63;;
13951;SDS011;39535;52.192;9.886;2023-03-03T07:02:24;29.27;;;13.20;;
13951;SDS011;39535;52.192;9.886;2023-03-03T07:04:51;27.90;;;13.53;;
13951;SDS011;39535;52.192;9.886;2023-03-03T07:07:19;32.03;;;13.53;;
13951;SDS011;39535;52.192;9.886;2023-03-03T07:09:49;33.00;;;13.83;;
13951;SDS011;39535;52.192;9.886;2023-03-03T07:12:18;30.50;;;13.43;;
13951;SDS011;39535;52.192;9.886;2023-03-03T07:14:47;25.03;;;13.27;;
13951;SDS011;39535;52.192;9.886;2023-03-03T07:17:21;30.07;;;13.70;;
13951;SDS011;39535;52.192;9.886;2023-03-03T07:19:49;25.30;;;12.63;;
13951;SDS011;39535;52.192;9.886;2023-03-03T07:22:16;38.67;;;15.53;;
13951;SDS011;39535;52.192;9.886;2023-03-03T07:24:44;32.00;;;14.83;;
13951;SDS011;39535;52.192;9.886;2023-03-03T07:27:13;26.53;;;13.67;;
13951;SDS011;39535;52.192;9.886;2023-03-03T07:29:45;33.43;;;14.17;;
13951;SDS011;39535;52.192;9.886;2023-03-03T07:32:19;24.80;;;13.17;;
13951;SDS011;39535;52.192;9.886;2023-03-03T07:34:50;28.37;;;13.93;;
13951;SDS011;39535;52.192;9.886;2023-03-03T07:37:21;30.73;;;13.60;;
13951;SDS011;39535;52.192;9.886;2023-03-03T07:39:54;38.63;;;14.63;;
13951;SDS011;39535;52.192;9.886;2023-03-03T07:42:21;39.80;;;14.33;;
13951;SDS011;39535;52.192;9.886;2023-03-03T07:44:51;29.40;;;13.70;;
13951;SDS011;39535;52.192;9.886;2023-03-03T07:47:21;39.70;;;17.23;;
13951;SDS011;39535;52.192;9.886;2023-03-03T07:49:50;42.13;;;15.93;;
13951;SDS011;39535;52.192;9.886;2023-03-03T07:52:26;37.70;;;14.83;;
13951;SDS011;39535;52.192;9.886;2023-03-03T07:54:58;42.93;;;14.63;;
13951;SDS011;39535;52.192;9.886;2023-03-03T07:57:28;31.63;;;16.03;;
13951;SDS011;39535;52.192;9.886;2023-03-03T08:01:18;44.70;;;16.70;;
13951;SDS011;39535;52.192;9.886;2023-03-03T08:03:18;43.90;;;16.33;;
13951;SDS011;39535;52.192;9.886;2023-03-03T08:05:45;41.83;;;15.97;;
13951;SDS011;39535;52.192;9.886;2023-03-03T08:08:14;46.13;;;17.90;;
13951;SDS011;39535;52.192;9.886;2023-03-03T08:10:53;45.20;;;17.50;;
13951;SDS011;39535;52.192;9.886;2023-03-03T08:13:21;58.47;;;17.90;;
13951;SDS011;39535;52.192;9.886;2023-03-03T08:15:49;49.00;;;18.00;;
13951;SDS011;39535;52.192;9.886;2023-03-03T08:18:20;62.53;;;17.97;;
13951;SDS011;39535;52.192;9.886;2023-03-03T08:20:50;56.30;;;18.90;;
13951;SDS011;39535;52.192;9.886;2023-03-03T08:23:18;56.73;;;19.03;;
13951;SDS011;39535;52.192;9.886;2023-03-03T08:25:46;53.63;;;17.20;;
13951;SDS011;39535;52.192;9.886;2023-03-03T08:28:14;45.40;;;16.87;;
13951;SDS011;39535;52.192;9.886;2023-03-03T08:30:41;47.37;;;16.73;;
13951;SDS011;39535;52.192;9.886;2023-03-03T08:33:08;49.60;;;17.97;;
13951;SDS011;39535;52.192;9.886;2023-03-03T08:35:36;45.33;;;17.63;;
13951;SDS011;39535;52.192;9.886;2023-03-03T08:38:03;51.17;;;17.93;;
13951;SDS011;39535;52.192;9.886;2023-03-03T08:40:30;42.77;;;18.30;;
13951;SDS011;39535;52.192;9.886;2023-03-03T08:42:57;37.70;;;15.33;;
13951;SDS011;39535;52.192;9.886;2023-03-03T08:45:24;37.10;;;15.80;;
13951;SDS011;39535;52.192;9.886;2023-03-03T08:47:51;40.70;;;17.37;;
13951;SDS011;39535;52.192;9.886;2023-03-03T08:50:17;31.80;;;15.40;;
13951;SDS011;39535;52.192;9.886;2023-03-03T08:52:46;33.87;;;15.23;;
13951;SDS011;39535;52.192;9.886;2023-03-03T08:55:12;36.37;;;16.53;;
13951;SDS011;39535;52.192;9.886;2023-03-03T08:57:39;36.20;;;16.53;;
13951;SDS011;39535;52.192;9.886;2023-03-03T09:00:06;30.90;;;15.70;;
13951;SDS011;39535;52.192;9.886;2023-03-03T09:02:34;34.30;;;15.40;;
13951;SDS011;39535;52.192;9.886;2023-03-03T09:05:00;38.00;;;14.67;;
13951;SDS011;39535;52.192;9.886;2023-03-03T09:07:27;32.07;;;16.33;;
13951;SDS011;39535;52.192;9.886;2023-03-03T09:09:54;33.27;;;15.40;;
13951;SDS011;39535;52.192;9.886;2023-03-03T09:12:21;31.40;;;14.70;;
13951;SDS011;39535;52.192;9.886;2023-03-03T09:14:53;31.93;;;14.00;;
13951;SDS011;39535;52.192;9.886;2023-03-03T09:17:22;35.57;;;15.87;;
13951;SDS011;39535;52.192;9.886;2023-03-03T09:19:50;29.90;;;14.80;;
13951;SDS011;39535;52.192;9.886;2023-03-03T09:22:18;32.60;;;14.67;;
13951;SDS011;39535;52.192;9.886;2023-03-03T09:24:47;27.97;;;14.53;;
13951;SDS011;39535;52.192;9.886;2023-03-03T09:27:17;33.20;;;15.83;;
13951;SDS011;39535;52.192;9.886;2023-03-03T09:29:47;30.07;;;15.37;;
13951;SDS011;39535;52.192;9.886;2023-03-03T09:32:20;31.93;;;15.53;;
13951;SDS011;39535;52.192;9.886;2023-03-03T09:34:51;30.03;;;15.43;;
13951;SDS011;39535;52.192;9.886;2023-03-03T09:37:20;37.90;;;15.93;;
13951;SDS011;39535;52.192;9.886;2023-03-03T09:39:49;33.07;;;14.67;;
13951;SDS011;39535;52.192;9.886;2023-03-03T09:42:23;34.20;;;16.63;;
13951;SDS011;39535;52.192;9.886;2023-03-03T09:45:10;31.03;;;15.60;;
13951;SDS011;39535;52.192;9.886;2023-03-03T09:47:46;30.93;;;14.27;;
13951;SDS011;39535;52.192;9.886;2023-03-03T09:50:29;32.97;;;15.47;;
13951;SDS011;39535;52.192;9.886;2023-03-03T09:53:05;29.43;;;15.33;;
13951;SDS011;39535;52.192;9.886;2023-03-03T09:55:43;25.17;;;14.00;;
13951;SDS011;39535;52.192;9.886;2023-03-03T09:58:20;23.00;;;13.03;;
13951;SDS011;39535;52.192;9.886;2023-03-03T10:00:58;22.13;;;14.03;;
13951;SDS011;39535;52.192;9.886;2023-03-03T10:03:45;28.47;;;14.80;;
13951;SDS011;39535;52.192;9.886;2023-03-03T10:06:23;22.67;;;14.30;;
13951;SDS011;39535;52.192;9.886;2023-03-03T10:09:03;22.93;;;13.03;;
13951;SDS011;39535;52.192;9.886;2023-03-03T10:11:49;29.60;;;13.57;;
13951;SDS011;39535;52.192;9.886;2023-03-03T10:14:36;18.30;;;12.40;;
13951;SDS011;39535;52.192;9.886;2023-03-03T10:17:21;25.87;;;13.03;;
13951;SDS011;39535;52.192;9.886;2023-03-03T10:20:02;20.80;;;13.30;;
13951;SDS011;39535;52.192;9.886;2023-03-03T10:22:41;28.33;;;16.43;;
13951;SDS011;39535;52.192;9.886;2023-03-03T10:25:20;25.67;;;14.03;;
13951;SDS011;39535;52.192;9.886;2023-03-03T10:28:05;29.83;;;16.57;;
13951;SDS011;39535;52.192;9.886;2023-03-03T10:30:59;34.77;;;16.70;;
13951;SDS011;39535;52.192;9.886;2023-03-03T10:33:34;33.57;;;15.83;;
13951;SDS011;39535;52.192;9.886;2023-03-03T10:36:12;29.77;;;15.93;;
13951;SDS011;39535;52.192;9.886;2023-03-03T10:38:51;20.30;;;14.30;;
13951;SDS011;39535;52.192;9.886;2023-03-03T10:41:33;19.00;;;13.60;;
13951;SDS011;39535;52.192;9.886;2023-03-03T10:44:17;23.37;;;14.90;;
13951;SDS011;39535;52.192;9.886;2023-03-03T10:47:01;27.40;;;15.10;;
13951;SDS011;39535;52.192;9.886;2023-03-03T10:49:55;24.33;;;14.97;;
13951;SDS011;39535;52.192;9.886;2023-03-03T10:52:36;25.87;;;14.83;;
13951;SDS011;39535;52.192;9.886;2023-03-03T10:55:12;23.90;;;13.47;;
13951;SDS011;39535;52.192;9.886;2023-03-03T10:57:48;28.40;;;15.33;;
13951;SDS011;39535;52.192;9.886;2023-03-03T11:00:21;34.53;;;16.53;;
13951;SDS011;39535;52.192;9.886;2023-03-03T11:03:01;33.07;;;18.27;;
13951;SDS011;39535;52.192;9.886;2023-03-03T11:05:48;32.00;;;16.30;;
13951;SDS011;39535;52.192;9.886;2023-03-03T11:08:17;30.43;;;16.53;;
13951;SDS011;39535;52.192;9.886;2023-03-03T11:10:49;30.47;;;16.83;;
13951;SDS011;39535;52.192;9.886;2023-03-03T11:13:20;33.03;;;17.37;;
13951;SDS011;39535;52.192;9.886;2023-03-03T11:15:57;36.47;;;18.20;;
13951;SDS011;39535;52.192;9.886;2023-03-03T11:18:41;29.80;;;16.67;;
13951;SDS011;39535;52.192;9.886;2023-03-03T11:21:14;30.83;;;17.67;;
13951;SDS011;39535;52.192;9.886;2023-03-03T11:23:52;36.67;;;17.23;;
13951;SDS011;39535;52.192;9.886;2023-03-03T11:26:33;37.23;;;18.33;;
13951;SDS011;39535;52.192;9.886;2023-03-03T11:29:16;33.07;;;16.53;;
13951;SDS011;39535;52.192;9.886;2023-03-03T11:31:56;36.07;;;17.80;;
13951;SDS011;39535;52.192;9.886;2023-03-03T11:34:36;32.80;;;17.60;;
13951;SDS011;39535;52.192;9.886;2023-03-03T11:37:14;32.40;;;17.43;;
13951;SDS011;39535;52.192;9.886;2023-03-03T11:39:47;37.13;;;18.63;;
13951;SDS011;39535;52.192;9.886;2023-03-03T11:42:19;43.33;;;19.53;;
13951;SDS011;39535;52.192;9.886;2023-03-03T11:44:50;42.67;;;19.47;;
13951;SDS011;39535;52.192;9.886;2023-03-03T11:47:22;43.40;;;20.40;;
13951;SDS011;39535;52.192;9.886;2023-03-03T11:49:55;41.60;;;19.40;;
13951;SDS011;39535;52.192;9.886;2023-03-03T11:52:28;38.60;;;19.13;;
13951;SDS011;39535;52.192;9.886;2023-03-03T11:55:04;38.80;;;18.23;;
13951;SDS011;39535;52.192;9.886;2023-03-03T11:57:39;32.37;;;18.40;;
13951;SDS011;39535;52.192;9.886;2023-03-03T12:00:16;30.33;;;17.37;;
13951;SDS011;39535;52.192;9.886;2023-03-03T12:02:53;29.77;;;17.30;;
13951;SDS011;39535;52.192;9.886;2023-03-03T12:05:30;39.23;;;18.33;;
13951;SDS011;39535;52.192;9.886;2023-03-03T12:08:06;30.03;;;16.40;;
13951;SDS011;39535;52.192;9.886;2023-03-03T12:10:41;28.97;;;16.30;;
13951;SDS011;39535;52.192;9.886;2023-03-03T12:13:17;26.67;;;16.97;;
13951;SDS011;39535;52.192;9.886;2023-03-03T12:15:50;21.63;;;14.67;;
13951;SDS011;39535;52.192;9.886;2023-03-03T12:18:28;19.57;;;13.70;;
13951;SDS011;39535;52.192;9.886;2023-03-03T12:21:16;18.43;;;13.00;;
13951;SDS011;39535;52.192;9.886;2023-03-03T12:23:56;22.27;;;13.97;;
13951;SDS011;39535;52.192;9.886;2023-03-03T12:26:35;19.37;;;13.20;;
13951;SDS011;39535;52.192;9.886;2023-03-03T12:29:11;19.87;;;13.37;;
13951;SDS011;39535;52.192;9.886;2023-03-03T12:31:44;19.97;;;13.63;;
13951;SDS011;39535;52.192;9.886;2023-03-03T12:34:16;22.17;;;12.37;;
13951;SDS011;39535;52.192;9.886;2023-03-03T12:36:57;14.83;;;11.57;;
13951;SDS011;39535;52.192;9.886;2023-03-03T12:39:34;20.00;;;12.50;;
13951;SDS011;39535;52.192;9.886;2023-03-03T12:42:11;22.20;;;13.47;;
13951;SDS011;39535;52.192;9.886;2023-03-03T12:44:46;18.77;;;12.60;;
13951;SDS011;39535;52.192;9.886;2023-03-03T12:47:20;26.73;;;15.43;;
13951;SDS011;39535;52.192;9.886;2023-03-03T12:49:55;33.57;;;17.27;;
13951;SDS011;39535;52.192;9.886;2023-03-03T12:52:30;19.13;;;13.23;;
13951;SDS011;39535;52.192;9.886;2023-03-03T12:55:10;18.43;;;13.53;;
13951;SDS011;39535;52.192;9.886;2023-03-03T12:57:45;14.00;;;10.80;;
13951;SDS011;39535;52.192;9.886;2023-03-03T13:00:23;16.50;;;12.90;;
13951;SDS011;39535;52.192;9.886;2023-03-03T13:02:58;23.57;;;14.90;;
13951;SDS011;39535;52.192;9.886;2023-03-03T13:05:32;22.23;;;12.60;;
13951;SDS011;39535;52.192;9.886;2023-03-03T13:08:28;16.63;;;12.03;;
13951;SDS011;39535;52.192;9.886;2023-03-03T13:11:09;16.47;;;11.63;;
13951;SDS011;39535;52.192;9.886;2023-03-03T13:13:48;18.60;;;10.90;;
13951;SDS011;39535;52.192;9.886;2023-03-03T13:16:24;15.63;;;11.63;;
13951;SDS011;39535;52.192;9.886;2023-03-03T13:18:56;19.20;;;13.00;;
13951;SDS011;39535;52.192;9.886;2023-03-03T13:21:26;16.33;;;11.60;;
13951;SDS011;39535;52.192;9.886;2023-03-03T13:24:03;19.60;;;11.90;;
13951;SDS011;39535;52.192;9.886;2023-03-03T13:26:42;20.37;;;13.03;;
13951;SDS011;39535;52.192;9.886;2023-03-03T13:29:14;17.07;;;12.17;;
13951;SDS011;39535;52.192;9.886;2023-03-03T13:31:46;15.97;;;12.23;;
13951;SDS011;39535;52.192;9.886;2023-03-03T13:34:18;16.87;;;12.17;;
13951;SDS011;39535;52.192;9.886;2023-03-03T13:36:50;14.97;;;11.67;;
13951;SDS011;39535;52.192;9.886;2023-03-03T13:39:24;16.73;;;11.60;;
13951;SDS011;39535;52.192;9.886;2023-03-03T13:41:55;13.07;;;10.80;;
13951;SDS011;39535;52.192;9.886;2023-03-03T13:44:27;15.43;;;11.97;;
13951;SDS011;39535;52.192;9.886;2023-03-03T13:47:02;20.37;;;11.47;;
13951;SDS011;39535;52.192;9.886;2023-03-03T13:49:44;18.40;;;11.90;;
13951;SDS011;39535;52.192;9.886;2023-03-03T13:52:28;16.13;;;11.60;;
13951;SDS011;39535;52.192;9.886;2023-03-03T13:55:13;15.03;;;10.57;;
13951;SDS011;39535;52.192;9.886;2023-03-03T13:57:59;14.83;;;9.60;;
13951;SDS011;39535;52.192;9.886;2023-03-03T14:00:33;13.07;;;10.03;;
13951;SDS011;39535;52.192;9.886;2023-03-03T14:06:07;15.33;;;10.77;;
13951;SDS011;39535;52.192;9.886;2023-03-03T14:08:43;18.03;;;10.57;;
13951;SDS011;39535;52.192;9.886;2023-03-03T14:11:21;14.93;;;9.93;;
13951;SDS011;39535;52.192;9.886;2023-03-03T14:13:56;16.97;;;12.90;;
13951;SDS011;39535;52.192;9.886;2023-03-03T14:16:37;19.13;;;11.63;;
13951;SDS011;39535;52.192;9.886;2023-03-03T14:19:09;18.20;;;11.10;;
13951;SDS011;39535;52.192;9.886;2023-03-03T14:21:42;15.70;;;11.40;;
13951;SDS011;39535;52.192;9.886;2023-03-03T14:24:17;16.00;;;11.23;;
13951;SDS011;39535;52.192;9.886;2023-03-03T14:26:46;14.57;;;10.33;;
13951;SDS011;39535;52.192;9.886;2023-03-03T14:29:21;17.03;;;11.47;;
13951;SDS011;39535;52.192;9.886;2023-03-03T14:31:56;16.77;;;10.80;;
13951;SDS011;39535;52.192;9.886;2023-03-03T14:34:33;17.43;;;12.13;;
13951;SDS011;39535;52.192;9.886;2023-03-03T14:37:20;15.57;;;11.30;;
13951;SDS011;39535;52.192;9.886;2023-03-03T14:39:50;13.70;;;9.87;;
13951;SDS011;39535;52.192;9.886;2023-03-03T14:42:31;12.73;;;10.30;;
13951;SDS011;39535;52.192;9.886;2023-03-03T14:45:04;15.50;;;11.50;;
13951;SDS011;39535;52.192;9.886;2023-03-03T14:47:44;12.67;;;10.70;;
13951;SDS011;39535;52.192;9.886;2023-03-03T14:50:27;14.23;;;11.40;;